Time;durP1;ratioP1;P1;durP2;ratioP2;P2;SDS_P1;SDS_P2;PMS_P1;PMS_P2;Temp;Humidity;BMP_temperature;BMP_pressure;BME280_temperature;BME280_humidity;BME280_pressure;Samples;Min_cycle;Max_cycle;Signal;HPM_P1;HPM_P2
2022/05/30 00:01:41;;;;;;;3.10;1.60;;;;;;;-128.00;-1.00;-1.00;100109;1299;1003175;-25
2022/05/30 00:04:10;;;;;;;5.20;1.70;;;;;;;-128.00;-1.00;-1.00;100190;1299;1004112;-24
2022/05/30 00:06:39;;;;;;;2.30;1.20;;;;;;;-128.00;-1.00;-1.00;100136;1298;1004399;-25
2022/05/30 00:09:13;;;;;;;8.50;1.20;;;;;;;-128.00;-1.00;-1.00;100193;1299;1003055;-30
2022/05/30 00:11:42;;;;;;;1.60;1.00;;;;;;;-128.00;-1.00;-1.00;100112;1299;1004231;-31
2022/05/30 00:14:11;;;;;;;7.60;1.40;;;;;;;-128.00;-1.00;-1.00;100131;1299;1003749;-32
2022/05/30 00:16:40;;;;;;;1.00;0.90;;;;;;;-128.00;-1.00;-1.00;100171;1299;1004201;-30
2022/05/30 00:19:09;;;;;;;3.80;1.70;;;;;;;-128.00;-1.00;-1.00;100166;1299;1004285;-25
2022/05/30 00:21:38;;;;;;;2.70;1.20;;;;;;;-128.00;-1.00;-1.00;100179;1299;1003411;-31
2022/05/30 00:24:07;;;;;;;4.20;1.60;;;;;;;-128.00;-1.00;-1.00;100039;1299;1004298;-30
2022/05/30 00:26:37;;;;;;;1.20;1.10;;;;;;;-128.00;-1.00;-1.00;100126;1299;1004484;-25
2022/05/30 00:29:06;;;;;;;10.40;2.00;;;;;;;-128.00;-1.00;-1.00;100118;1299;1003766;-30
2022/05/30 00:31:35;;;;;;;3.30;1.10;;;;;;;-128.00;-1.00;-1.00;100210;1297;1003320;-24
2022/05/30 00:34:04;;;;;;;2.50;1.10;;;;;;;-128.00;-1.00;-1.00;100142;1299;1004104;-24
2022/05/30 00:36:33;;;;;;;3.00;1.60;;;;;;;-128.00;-1.00;-1.00;100189;1298;1004575;-27
2022/05/30 00:39:02;;;;;;;5.00;1.30;;;;;;;-128.00;-1.00;-1.00;100182;1299;1004312;-25
2022/05/30 00:41:31;;;;;;;1.90;1.40;;;;;;;-128.00;-1.00;-1.00;100190;1299;1003963;-30
2022/05/30 00:44:00;;;;;;;2.80;0.90;;;;;;;-128.00;-1.00;-1.00;100190;1299;1004654;-25
2022/05/30 00:46:29;;;;;;;2.40;1.40;;;;;;;-128.00;-1.00;-1.00;100215;1299;1004298;-25
2022/05/30 00:49:00;;;;;;;2.70;0.90;;;;;;;-128.00;-1.00;-1.00;100114;1299;1004721;-25
2022/05/30 00:51:34;;;;;;;3.00;1.40;;;;;;;-128.00;-1.00;-1.00;100179;1299;1003036;-24
2022/05/30 00:54:04;;;;;;;2.70;1.20;;;;;;;-128.00;-1.00;-1.00;99474;1299;1004149;-25
2022/05/30 00:56:36;;;;;;;1.20;1.00;;;;;;;-128.00;-1.00;-1.00;100195;1299;1004934;-24
2022/05/30 00:59:05;;;;;;;5.20;1.70;;;;;;;-128.00;-1.00;-1.00;100040;1299;1003886;-25
2022/05/30 01:01:34;;;;;;;2.10;1.50;;;;;;;-128.00;-1.00;-1.00;100147;1299;1003968;-28
2022/05/30 01:06:39;;;;;;;1.90;1.60;;;;;;;-128.00;-1.00;-1.00;100202;1299;1003748;-24
2022/05/30 01:09:11;;;;;;;3.10;1.60;;;;;;;-128.00;-1.00;-1.00;100187;1299;1003799;-30
2022/05/30 01:11:46;;;;;;;3.50;1.60;;;;;;;-128.00;-1.00;-1.00;100164;1299;1003268;-30
2022/05/30 01:14:15;;;;;;;2.20;1.50;;;;;;;-128.00;-1.00;-1.00;100196;1299;1003411;-31
2022/05/30 01:16:44;;;;;;;2.10;1.40;;;;;;;-128.00;-1.00;-1.00;100132;1299;1003999;-27
2022/05/30 01:19:22;;;;;;;3.10;1.60;;;;;;;-128.00;-1.00;-1.00;100157;1299;1003538;-30
2022/05/30 01:22:01;;;;;;;3.80;2.90;;;;;;;-128.00;-1.00;-1.00;100093;1299;1004166;-32
2022/05/30 01:24:35;;;;;;;6.00;5.40;;;;;;;-128.00;-1.00;-1.00;100098;1299;1003920;-30
2022/05/30 01:27:14;;;;;;;3.10;1.50;;;;;;;-128.00;-1.00;-1.00;100107;1299;1003716;-24
2022/05/30 01:29:47;;;;;;;4.00;1.30;;;;;;;-128.00;-1.00;-1.00;100130;1298;1004175;-25
2022/05/30 01:32:18;;;;;;;3.10;1.20;;;;;;;-128.00;-1.00;-1.00;100166;1299;1004501;-25
2022/05/30 01:34:46;;;;;;;3.90;2.70;;;;;;;-128.00;-1.00;-1.00;100149;1298;1004065;-30
2022/05/30 01:37:15;;;;;;;9.70;7.20;;;;;;;-128.00;-1.00;-1.00;100151;1299;1003755;-24
2022/05/30 01:39:45;;;;;;;4.90;4.50;;;;;;;-128.00;-1.00;-1.00;100192;1299;1003054;-30
2022/05/30 01:42:15;;;;;;;9.10;4.50;;;;;;;-128.00;-1.00;-1.00;100130;1299;1003599;-25
2022/05/30 01:44:44;;;;;;;2.50;1.80;;;;;;;-128.00;-1.00;-1.00;100072;1299;1003508;-24
2022/05/30 01:47:13;;;;;;;13.20;10.90;;;;;;;-128.00;-1.00;-1.00;100157;1299;1003391;-30
2022/05/30 01:49:43;;;;;;;16.30;13.40;;;;;;;-128.00;-1.00;-1.00;100191;1299;1003787;-30
2022/05/30 01:52:12;;;;;;;15.80;13.30;;;;;;;-128.00;-1.00;-1.00;100149;1299;1003769;-25
2022/05/30 01:54:41;;;;;;;7.90;7.10;;;;;;;-128.00;-1.00;-1.00;100175;1299;1004160;-24
2022/05/30 01:57:10;;;;;;;16.90;12.70;;;;;;;-128.00;-1.00;-1.00;100152;1299;1003828;-25
2022/05/30 01:59:39;;;;;;;11.10;6.80;;;;;;;-128.00;-1.00;-1.00;100151;1299;1003813;-30
2022/05/30 02:02:09;;;;;;;11.30;9.60;;;;;;;-128.00;-1.00;-1.00;100131;1299;1003394;-33
2022/05/30 02:04:38;;;;;;;47.10;36.30;;;;;;;-128.00;-1.00;-1.00;100113;1299;1004447;-23
2022/05/30 02:07:07;;;;;;;49.90;35.40;;;;;;;-128.00;-1.00;-1.00;100193;1299;1003833;-25
2022/05/30 02:09:36;;;;;;;60.90;41.10;;;;;;;-128.00;-1.00;-1.00;100196;1299;1003552;-31
2022/05/30 02:12:06;;;;;;;18.00;11.70;;;;;;;-128.00;-1.00;-1.00;100204;1299;1004270;-30
2022/05/30 02:14:35;;;;;;;29.90;23.40;;;;;;;-128.00;-1.00;-1.00;100128;1299;1003771;-30
2022/05/30 02:17:04;;;;;;;10.10;7.70;;;;;;;-128.00;-1.00;-1.00;100133;1299;1004248;-30
2022/05/30 02:19:37;;;;;;;31.50;26.60;;;;;;;-128.00;-1.00;-1.00;100160;1299;1003981;-32
2022/05/30 02:22:08;;;;;;;4.40;2.50;;;;;;;-128.00;-1.00;-1.00;100190;1299;1004371;-26
2022/05/30 02:24:38;;;;;;;2.90;1.80;;;;;;;-128.00;-1.00;-1.00;100179;1299;1003197;-30
2022/05/30 02:27:08;;;;;;;4.20;1.80;;;;;;;-128.00;-1.00;-1.00;100177;1299;1003154;-25
2022/05/30 02:29:38;;;;;;;4.40;3.60;;;;;;;-128.00;-1.00;-1.00;100159;1298;1003340;-31
2022/05/30 02:32:07;;;;;;;3.70;2.80;;;;;;;-128.00;-1.00;-1.00;100111;1299;1002915;-30
2022/05/30 02:37:08;;;;;;;4.70;3.70;;;;;;;-128.00;-1.00;-1.00;100184;1299;1003557;-30
2022/05/30 02:39:37;;;;;;;30.40;22.30;;;;;;;-128.00;-1.00;-1.00;100104;1299;1003751;-24
2022/05/30 02:42:07;;;;;;;11.70;7.20;;;;;;;-128.00;-1.00;-1.00;100076;1299;1004106;-25
2022/05/30 02:44:36;;;;;;;24.20;18.70;;;;;;;-128.00;-1.00;-1.00;100114;1299;1003384;-25
2022/05/30 02:47:06;;;;;;;9.40;8.40;;;;;;;-128.00;-1.00;-1.00;100133;1299;1003429;-24
2022/05/30 02:49:34;;;;;;;17.80;12.90;;;;;;;-128.00;-1.00;-1.00;100120;1299;1003727;-25
2022/05/30 02:52:04;;;;;;;35.90;18.30;;;;;;;-128.00;-1.00;-1.00;100182;1299;1003658;-32
2022/05/30 02:54:33;;;;;;;17.10;15.30;;;;;;;-128.00;-1.00;-1.00;100095;1299;1004224;-24
2022/05/30 02:57:02;;;;;;;5.30;4.90;;;;;;;-128.00;-1.00;-1.00;100232;1299;1003351;-30
2022/05/30 02:59:31;;;;;;;21.20;14.30;;;;;;;-128.00;-1.00;-1.00;100135;1299;1003209;-25
2022/05/30 03:02:00;;;;;;;6.40;4.80;;;;;;;-128.00;-1.00;-1.00;100132;1299;1003046;-30
2022/05/30 03:04:29;;;;;;;6.70;3.60;;;;;;;-128.00;-1.00;-1.00;100168;1299;1003788;-30
2022/05/30 03:06:58;;;;;;;5.00;4.10;;;;;;;-128.00;-1.00;-1.00;100151;1299;1003347;-30
2022/05/30 03:09:27;;;;;;;5.00;3.40;;;;;;;-128.00;-1.00;-1.00;100186;1299;1004183;-25
2022/05/30 03:11:56;;;;;;;16.40;8.80;;;;;;;-128.00;-1.00;-1.00;100167;1299;1003639;-30
2022/05/30 03:14:25;;;;;;;15.40;12.40;;;;;;;-128.00;-1.00;-1.00;100126;1299;1003478;-30
2022/05/30 03:16:54;;;;;;;42.10;28.20;;;;;;;-128.00;-1.00;-1.00;100179;1299;1002898;-25
2022/05/30 03:19:23;;;;;;;58.00;40.30;;;;;;;-128.00;-1.00;-1.00;99962;1299;1004592;-30
2022/05/30 03:21:52;;;;;;;36.20;24.90;;;;;;;-128.00;-1.00;-1.00;100103;1299;1003625;-25
2022/05/30 03:24:21;;;;;;;6.50;5.10;;;;;;;-128.00;-1.00;-1.00;100206;1299;1004336;-24
2022/05/30 03:26:50;;;;;;;20.40;14.50;;;;;;;-128.00;-1.00;-1.00;100185;1299;1006229;-30
2022/05/30 03:29:18;;;;;;;39.20;28.70;;;;;;;-128.00;-1.00;-1.00;100126;1299;1003189;-25
2022/05/30 03:31:47;;;;;;;49.90;37.40;;;;;;;-128.00;-1.00;-1.00;100179;1299;1002938;-30
2022/05/30 03:34:16;;;;;;;25.60;22.20;;;;;;;-128.00;-1.00;-1.00;100175;1299;1004622;-24
2022/05/30 03:36:45;;;;;;;18.80;16.50;;;;;;;-128.00;-1.00;-1.00;100014;1299;1003866;-25
2022/05/30 03:39:14;;;;;;;43.90;34.30;;;;;;;-128.00;-1.00;-1.00;100184;1299;1003454;-24
2022/05/30 03:41:43;;;;;;;31.80;24.40;;;;;;;-128.00;-1.00;-1.00;100126;1299;1004601;-24
2022/05/30 03:44:12;;;;;;;6.20;5.40;;;;;;;-128.00;-1.00;-1.00;100157;1298;1004800;-24
2022/05/30 03:46:41;;;;;;;7.70;6.90;;;;;;;-128.00;-1.00;-1.00;100150;1299;1003547;-29
2022/05/30 03:49:10;;;;;;;2.60;2.30;;;;;;;-128.00;-1.00;-1.00;100193;1299;1003930;-24
2022/05/30 03:51:39;;;;;;;3.70;1.70;;;;;;;-128.00;-1.00;-1.00;100121;1298;1003165;-24
2022/05/30 03:54:08;;;;;;;1.70;1.30;;;;;;;-128.00;-1.00;-1.00;100105;1299;1004750;-24
2022/05/30 03:56:37;;;;;;;3.80;0.80;;;;;;;-128.00;-1.00;-1.00;100137;1299;1004081;-24
2022/05/30 03:59:07;;;;;;;1.70;1.00;;;;;;;-128.00;-1.00;-1.00;100122;1299;1003963;-31
2022/05/30 04:01:36;;;;;;;1.90;0.60;;;;;;;-128.00;-1.00;-1.00;100147;1299;1003790;-30
2022/05/30 04:04:05;;;;;;;3.00;0.70;;;;;;;-128.00;-1.00;-1.00;100155;1298;1004835;-24
2022/05/30 04:06:34;;;;;;;2.70;0.90;;;;;;;-128.00;-1.00;-1.00;100115;1299;1004235;-29
2022/05/30 04:09:03;;;;;;;1.70;0.80;;;;;;;-128.00;-1.00;-1.00;100166;1299;1004032;-29
2022/05/30 04:11:32;;;;;;;0.70;0.40;;;;;;;-128.00;-1.00;-1.00;100165;1299;1003407;-26
2022/05/30 04:14:01;;;;;;;1.40;0.80;;;;;;;-128.00;-1.00;-1.00;100177;1299;1003008;-32
2022/05/30 04:16:30;;;;;;;1.10;0.50;;;;;;;-128.00;-1.00;-1.00;99869;1298;1004204;-27
2022/05/30 04:19:01;;;;;;;3.00;1.90;;;;;;;-128.00;-1.00;-1.00;100158;1298;1003856;-26
2022/05/30 04:21:30;;;;;;;2.10;1.50;;;;;;;-128.00;-1.00;-1.00;100205;1299;1002987;-32
2022/05/30 04:23:59;;;;;;;2.60;1.30;;;;;;;-128.00;-1.00;-1.00;100212;1299;1003501;-32
2022/05/30 04:26:28;;;;;;;1.10;0.70;;;;;;;-128.00;-1.00;-1.00;100163;1298;1003671;-30
2022/05/30 04:28:57;;;;;;;1.80;0.80;;;;;;;-128.00;-1.00;-1.00;100162;1299;1003669;-30
2022/05/30 04:31:26;;;;;;;1.00;0.60;;;;;;;-128.00;-1.00;-1.00;100116;1299;1004182;-25
2022/05/30 04:33:55;;;;;;;2.20;0.50;;;;;;;-128.00;-1.00;-1.00;100176;1299;1003839;-25
2022/05/30 04:36:24;;;;;;;1.50;0.70;;;;;;;-128.00;-1.00;-1.00;100055;1299;1004362;-23
2022/05/30 04:38:53;;;;;;;1.60;0.50;;;;;;;-128.00;-1.00;-1.00;100122;1299;1002988;-30
2022/05/30 04:41:22;;;;;;;0.90;0.70;;;;;;;-128.00;-1.00;-1.00;100152;1298;1003827;-24
2022/05/30 04:43:51;;;;;;;1.20;0.70;;;;;;;-128.00;-1.00;-1.00;100213;1299;1004316;-25
2022/05/30 04:46:20;;;;;;;1.30;0.60;;;;;;;-128.00;-1.00;-1.00;100195;1299;1004090;-29
2022/05/30 04:48:49;;;;;;;3.20;1.00;;;;;;;-128.00;-1.00;-1.00;100119;1299;1003744;-24
2022/05/30 04:51:18;;;;;;;1.70;1.10;;;;;;;-128.00;-1.00;-1.00;100234;1298;1003463;-25
2022/05/30 04:53:47;;;;;;;8.60;0.50;;;;;;;-128.00;-1.00;-1.00;100179;1299;1004541;-29
2022/05/30 04:56:19;;;;;;;2.40;0.60;;;;;;;-128.00;-1.00;-1.00;100151;1298;1003195;-30
2022/05/30 04:58:49;;;;;;;1.20;0.80;;;;;;;-128.00;-1.00;-1.00;100222;1299;1003552;-30
2022/05/30 05:01:18;;;;;;;0.60;0.60;;;;;;;-128.00;-1.00;-1.00;100167;1299;1003518;-29
2022/05/30 05:03:47;;;;;;;4.80;0.90;;;;;;;-128.00;-1.00;-1.00;100140;1299;1004643;-26
2022/05/30 05:06:18;;;;;;;2.30;1.00;;;;;;;-128.00;-1.00;-1.00;100182;1299;1003862;-27
2022/05/30 05:08:51;;;;;;;1.90;0.60;;;;;;;-128.00;-1.00;-1.00;100185;1299;1003663;-29
2022/05/30 05:11:22;;;;;;;2.00;1.20;;;;;;;-128.00;-1.00;-1.00;100156;1298;1004098;-26
2022/05/30 05:13:51;;;;;;;1.30;0.70;;;;;;;-128.00;-1.00;-1.00;100140;1299;1003689;-31
2022/05/30 05:16:22;;;;;;;9.80;8.50;;;;;;;-128.00;-1.00;-1.00;100214;1299;1003376;-30
2022/05/30 05:18:51;;;;;;;11.50;10.40;;;;;;;-128.00;-1.00;-1.00;100044;1299;1003992;-30
2022/05/30 05:21:23;;;;;;;2.00;1.60;;;;;;;-128.00;-1.00;-1.00;100127;1298;1003393;-27
2022/05/30 05:23:52;;;;;;;2.70;2.10;;;;;;;-128.00;-1.00;-1.00;100148;1298;1003561;-30
2022/05/30 05:26:21;;;;;;;2.60;1.00;;;;;;;-128.00;-1.00;-1.00;100200;1298;1003618;-30
2022/05/30 05:28:50;;;;;;;2.10;0.80;;;;;;;-128.00;-1.00;-1.00;100183;1299;1003303;-27
2022/05/30 05:31:22;;;;;;;1.70;0.90;;;;;;;-128.00;-1.00;-1.00;100204;1298;1003399;-30
2022/05/30 05:33:51;;;;;;;2.90;0.80;;;;;;;-128.00;-1.00;-1.00;100154;1298;1004474;-25
2022/05/30 05:36:22;;;;;;;1.30;0.80;;;;;;;-128.00;-1.00;-1.00;100172;1299;1002846;-25
2022/05/30 05:38:51;;;;;;;1.80;1.00;;;;;;;-128.00;-1.00;-1.00;100145;1299;1002980;-30
2022/05/30 05:41:21;;;;;;;2.60;0.80;;;;;;;-128.00;-1.00;-1.00;100173;1299;1003943;-26
2022/05/30 05:43:52;;;;;;;1.20;0.60;;;;;;;-128.00;-1.00;-1.00;100154;1299;1003181;-30
2022/05/30 05:46:24;;;;;;;2.40;1.20;;;;;;;-128.00;-1.00;-1.00;100044;1299;1004073;-26
2022/05/30 05:48:54;;;;;;;1.70;1.00;;;;;;;-128.00;-1.00;-1.00;100133;1299;1003554;-28
2022/05/30 05:51:23;;;;;;;1.60;1.10;;;;;;;-128.00;-1.00;-1.00;100156;1299;1002991;-27
2022/05/30 05:53:53;;;;;;;2.30;1.00;;;;;;;-128.00;-1.00;-1.00;100128;1299;1004787;-30
2022/05/30 05:56:26;;;;;;;0.80;0.50;;;;;;;-128.00;-1.00;-1.00;100166;1299;1002887;-25
2022/05/30 05:58:55;;;;;;;0.90;0.70;;;;;;;-128.00;-1.00;-1.00;100193;1299;1003619;-29
2022/05/30 06:01:27;;;;;;;0.90;0.60;;;;;;;-128.00;-1.00;-1.00;100147;1299;1004164;-24
2022/05/30 06:03:58;;;;;;;2.50;0.60;;;;;;;-128.00;-1.00;-1.00;100151;1296;1004391;-26
2022/05/30 06:06:28;;;;;;;2.20;0.60;;;;;;;-128.00;-1.00;-1.00;100150;1299;1004919;-25
2022/05/30 06:08:58;;;;;;;0.70;0.50;;;;;;;-128.00;-1.00;-1.00;100137;1299;1003137;-30
2022/05/30 06:11:28;;;;;;;5.50;1.00;;;;;;;-128.00;-1.00;-1.00;100033;1299;1003740;-30
2022/05/30 06:13:57;;;;;;;2.50;0.90;;;;;;;-128.00;-1.00;-1.00;100159;1299;1003078;-25
2022/05/30 06:16:28;;;;;;;1.50;0.50;;;;;;;-128.00;-1.00;-1.00;100192;1298;1003069;-25
2022/05/30 06:18:59;;;;;;;2.80;0.80;;;;;;;-128.00;-1.00;-1.00;100199;1299;1003269;-29
2022/05/30 06:21:29;;;;;;;0.80;0.50;;;;;;;-128.00;-1.00;-1.00;100182;1299;1003895;-29
2022/05/30 06:23:58;;;;;;;0.80;0.50;;;;;;;-128.00;-1.00;-1.00;100182;1297;1003218;-31
2022/05/30 06:26:27;;;;;;;0.90;0.50;;;;;;;-128.00;-1.00;-1.00;100149;1299;1004582;-26
2022/05/30 06:28:57;;;;;;;2.20;0.40;;;;;;;-128.00;-1.00;-1.00;100243;1299;1004130;-26
2022/05/30 06:31:28;;;;;;;1.10;0.40;;;;;;;-128.00;-1.00;-1.00;100163;1299;1004369;-26
2022/05/30 06:33:59;;;;;;;0.80;0.50;;;;;;;-128.00;-1.00;-1.00;100132;1299;1004215;-26
2022/05/30 06:36:28;;;;;;;0.60;0.50;;;;;;;-128.00;-1.00;-1.00;100083;1299;1004183;-30
2022/05/30 06:38:57;;;;;;;2.00;0.70;;;;;;;-128.00;-1.00;-1.00;100117;1298;1003386;-25
2022/05/30 06:41:27;;;;;;;6.60;2.70;;;;;;;-128.00;-1.00;-1.00;100119;1299;1004626;-26
2022/05/30 06:44:02;;;;;;;0.90;0.60;;;;;;;-128.00;-1.00;-1.00;100084;1299;1004969;-30
2022/05/30 06:46:33;;;;;;;2.00;0.70;;;;;;;-128.00;-1.00;-1.00;100114;1299;1002745;-29
2022/05/30 06:49:03;;;;;;;3.40;0.80;;;;;;;-128.00;-1.00;-1.00;100159;1299;1003933;-25
2022/05/30 06:51:34;;;;;;;0.60;0.40;;;;;;;-128.00;-1.00;-1.00;100169;1299;1003369;-26
2022/05/30 06:54:05;;;;;;;1.00;0.60;;;;;;;-128.00;-1.00;-1.00;100185;1299;1004306;-30
2022/05/30 06:56:37;;;;;;;2.20;0.60;;;;;;;-128.00;-1.00;-1.00;100221;1299;1004522;-22
2022/05/30 06:59:08;;;;;;;0.60;0.40;;;;;;;-128.00;-1.00;-1.00;100091;1299;1003134;-25
2022/05/30 07:01:37;;;;;;;1.20;0.50;;;;;;;-128.00;-1.00;-1.00;100104;1299;1003688;-29
2022/05/30 07:04:06;;;;;;;0.40;0.40;;;;;;;-128.00;-1.00;-1.00;100218;1299;1003696;-31
2022/05/30 07:06:35;;;;;;;0.70;0.50;;;;;;;-128.00;-1.00;-1.00;100150;1299;1004040;-26
2022/05/30 07:09:05;;;;;;;1.40;0.50;;;;;;;-128.00;-1.00;-1.00;100191;1299;1004432;-25
2022/05/30 07:11:38;;;;;;;3.40;0.70;;;;;;;-128.00;-1.00;-1.00;100113;1298;1004994;-25
2022/05/30 07:14:10;;;;;;;1.10;0.70;;;;;;;-128.00;-1.00;-1.00;100025;1299;1003892;-30
2022/05/30 07:16:39;;;;;;;1.00;0.70;;;;;;;-128.00;-1.00;-1.00;100115;1299;1003209;-25
2022/05/30 07:19:09;;;;;;;4.80;0.70;;;;;;;-128.00;-1.00;-1.00;100150;1299;1003766;-24
2022/05/30 07:21:38;;;;;;;2.30;0.50;;;;;;;-128.00;-1.00;-1.00;100193;1299;1003571;-30
2022/05/30 07:24:10;;;;;;;0.40;0.40;;;;;;;-128.00;-1.00;-1.00;100198;1299;1004383;-26
2022/05/30 07:26:39;;;;;;;1.50;0.50;;;;;;;-128.00;-1.00;-1.00;100044;1299;1003466;-24
2022/05/30 07:29:08;;;;;;;2.40;0.80;;;;;;;-128.00;-1.00;-1.00;100190;1299;1003522;-31
2022/05/30 07:31:37;;;;;;;1.40;0.50;;;;;;;-128.00;-1.00;-1.00;100174;1299;1003362;-26
2022/05/30 07:34:06;;;;;;;0.40;0.30;;;;;;;-128.00;-1.00;-1.00;100215;1299;1003741;-31
2022/05/30 07:36:35;;;;;;;1.30;0.50;;;;;;;-128.00;-1.00;-1.00;100148;1299;1003373;-25
2022/05/30 07:39:04;;;;;;;0.30;0.30;;;;;;;-128.00;-1.00;-1.00;100088;1299;1003798;-24
2022/05/30 07:41:37;;;;;;;0.60;0.40;;;;;;;-128.00;-1.00;-1.00;100163;1299;1002871;-29
2022/05/30 07:44:07;;;;;;;1.60;0.60;;;;;;;-128.00;-1.00;-1.00;100241;1299;1003638;-24
2022/05/30 07:46:36;;;;;;;4.90;0.50;;;;;;;-128.00;-1.00;-1.00;100233;1299;1003761;-28
2022/05/30 07:49:05;;;;;;;3.00;0.60;;;;;;;-128.00;-1.00;-1.00;100302;1298;1004159;-24
2022/05/30 07:51:34;;;;;;;2.10;0.70;;;;;;;-128.00;-1.00;-1.00;100181;1299;1003247;-29
2022/05/30 07:54:03;;;;;;;0.80;0.50;;;;;;;-128.00;-1.00;-1.00;100087;1299;1004011;-28
2022/05/30 07:56:32;;;;;;;3.30;1.30;;;;;;;-128.00;-1.00;-1.00;100152;1299;1003641;-25
2022/05/30 07:59:01;;;;;;;1.80;0.70;;;;;;;-128.00;-1.00;-1.00;100205;1299;1004330;-29
2022/05/30 08:01:30;;;;;;;2.80;0.60;;;;;;;-128.00;-1.00;-1.00;100134;1299;1004756;-25
2022/05/30 08:03:59;;;;;;;2.80;0.70;;;;;;;-128.00;-1.00;-1.00;100187;1299;1004108;-25
2022/05/30 08:06:29;;;;;;;1.70;1.40;;;;;;;-128.00;-1.00;-1.00;100192;1299;1004366;-29
2022/05/30 08:08:58;;;;;;;1.00;0.90;;;;;;;-128.00;-1.00;-1.00;100163;1299;1003037;-25
2022/05/30 08:11:27;;;;;;;2.10;1.00;;;;;;;-128.00;-1.00;-1.00;100147;1299;1003547;-24
2022/05/30 08:13:56;;;;;;;2.00;0.60;;;;;;;-128.00;-1.00;-1.00;100110;1299;1003654;-25
2022/05/30 08:16:26;;;;;;;2.00;1.00;;;;;;;-128.00;-1.00;-1.00;100120;1299;1004966;-25
2022/05/30 08:18:56;;;;;;;3.70;2.60;;;;;;;-128.00;-1.00;-1.00;100084;1299;1003786;-25
2022/05/30 08:21:25;;;;;;;2.60;0.50;;;;;;;-128.00;-1.00;-1.00;100203;1299;1004152;-29
2022/05/30 08:23:54;;;;;;;2.40;1.00;;;;;;;-128.00;-1.00;-1.00;100214;1299;1004150;-29
2022/05/30 08:26:23;;;;;;;4.20;0.60;;;;;;;-128.00;-1.00;-1.00;100123;1299;1003085;-25
2022/05/30 08:28:51;;;;;;;1.10;0.50;;;;;;;-128.00;-1.00;-1.00;100176;1299;1003066;-30
2022/05/30 08:31:20;;;;;;;2.00;0.70;;;;;;;-128.00;-1.00;-1.00;100203;1299;1003786;-27
2022/05/30 08:33:49;;;;;;;5.60;0.70;;;;;;;-128.00;-1.00;-1.00;100196;1298;1004665;-24
2022/05/30 08:36:18;;;;;;;1.50;0.70;;;;;;;-128.00;-1.00;-1.00;100134;1299;1003391;-29
2022/05/30 08:38:47;;;;;;;0.90;0.50;;;;;;;-128.00;-1.00;-1.00;100163;1299;1003767;-29
2022/05/30 08:43:49;;;;;;;0.40;0.30;;;;;;;-128.00;-1.00;-1.00;100115;1299;1003253;-29
2022/05/30 08:46:22;;;;;;;0.80;0.50;;;;;;;-128.00;-1.00;-1.00;100228;1299;1004032;-28
2022/05/30 08:48:55;;;;;;;1.20;0.40;;;;;;;-128.00;-1.00;-1.00;100150;1299;1003296;-28
2022/05/30 08:51:29;;;;;;;0.80;0.40;;;;;;;-128.00;-1.00;-1.00;100142;1298;1003284;-28
2022/05/30 08:53:59;;;;;;;0.40;0.30;;;;;;;-128.00;-1.00;-1.00;100166;1299;1004064;-24
2022/05/30 08:56:30;;;;;;;0.80;0.20;;;;;;;-128.00;-1.00;-1.00;100161;1299;1002905;-25
2022/05/30 08:59:04;;;;;;;4.30;0.70;;;;;;;-128.00;-1.00;-1.00;100169;1299;1003855;-28
2022/05/30 09:01:37;;;;;;;2.30;0.50;;;;;;;-128.00;-1.00;-1.00;100195;1299;1002915;-28
2022/05/30 09:04:11;;;;;;;2.00;0.80;;;;;;;-128.00;-1.00;-1.00;100206;1299;1002951;-28
2022/05/30 09:06:43;;;;;;;1.80;0.50;;;;;;;-128.00;-1.00;-1.00;100176;1299;1004450;-28
2022/05/30 09:09:17;;;;;;;1.40;0.50;;;;;;;-128.00;-1.00;-1.00;100148;1296;1005516;-30
2022/05/30 09:11:49;;;;;;;0.40;0.30;;;;;;;-128.00;-1.00;-1.00;100184;1299;1003786;-26
2022/05/30 09:14:21;;;;;;;0.60;0.20;;;;;;;-128.00;-1.00;-1.00;100174;1299;1003279;-25
2022/05/30 09:16:53;;;;;;;1.60;0.50;;;;;;;-128.00;-1.00;-1.00;100174;1299;1003296;-30
2022/05/30 09:19:23;;;;;;;1.00;0.40;;;;;;;-128.00;-1.00;-1.00;100185;1298;1004771;-26
2022/05/30 09:21:54;;;;;;;0.70;0.50;;;;;;;-128.00;-1.00;-1.00;100145;1299;1004448;-30
2022/05/30 09:24:23;;;;;;;6.80;0.70;;;;;;;-128.00;-1.00;-1.00;100226;1299;1003116;-30
2022/05/30 09:26:52;;;;;;;1.30;0.50;;;;;;;-128.00;-1.00;-1.00;100154;1299;1003327;-24
2022/05/30 09:29:27;;;;;;;1.80;0.60;;;;;;;-128.00;-1.00;-1.00;100203;1299;1003689;-28
2022/05/30 09:32:04;;;;;;;1.90;0.50;;;;;;;-128.00;-1.00;-1.00;100179;1299;1003699;-24
2022/05/30 09:34:37;;;;;;;0.60;0.30;;;;;;;-128.00;-1.00;-1.00;100144;1299;1003114;-28
2022/05/30 09:37:07;;;;;;;0.70;0.40;;;;;;;-128.00;-1.00;-1.00;100602;1299;1003203;-29
2022/05/30 09:39:42;;;;;;;5.40;1.30;;;;;;;-128.00;-1.00;-1.00;100351;1299;1003290;-23
2022/05/30 09:42:23;;;;;;;1.00;0.40;;;;;;;-128.00;-1.00;-1.00;100544;1299;1003011;-24
2022/05/30 09:44:55;;;;;;;0.50;0.30;;;;;;;-128.00;-1.00;-1.00;100301;1299;1003954;-29
2022/05/30 09:47:24;;;;;;;1.40;0.80;;;;;;;-128.00;-1.00;-1.00;100305;1298;1003002;-25
2022/05/30 09:49:54;;;;;;;1.20;0.40;;;;;;;-128.00;-1.00;-1.00;100243;1299;1005404;-25
2022/05/30 09:52:22;;;;;;;1.50;0.30;;;;;;;-128.00;-1.00;-1.00;100174;1299;1003742;-25
2022/05/30 09:54:53;;;;;;;0.70;0.40;;;;;;;-128.00;-1.00;-1.00;100090;1299;1003247;-25
2022/05/30 09:57:27;;;;;;;1.40;0.70;;;;;;;-128.00;-1.00;-1.00;100102;1299;1004155;-24
2022/05/30 09:59:57;;;;;;;1.20;0.40;;;;;;;-128.00;-1.00;-1.00;100094;1299;1004830;-24
2022/05/30 10:02:29;;;;;;;1.40;0.60;;;;;;;-128.00;-1.00;-1.00;100271;1299;1003218;-24
2022/05/30 10:05:00;;;;;;;2.00;0.50;;;;;;;-128.00;-1.00;-1.00;100163;1299;1003535;-28
2022/05/30 10:07:32;;;;;;;0.70;0.60;;;;;;;-128.00;-1.00;-1.00;100122;1302;1003686;-24
2022/05/30 10:10:02;;;;;;;0.60;0.50;;;;;;;-128.00;-1.00;-1.00;100181;1299;1003577;-24
2022/05/30 10:12:31;;;;;;;0.50;0.40;;;;;;;-128.00;-1.00;-1.00;100160;1299;1004170;-23
2022/05/30 10:15:01;;;;;;;0.90;0.30;;;;;;;-128.00;-1.00;-1.00;100128;1299;1004066;-25
2022/05/30 10:17:32;;;;;;;0.90;0.40;;;;;;;-128.00;-1.00;-1.00;100148;1299;1003090;-30
2022/05/30 10:20:06;;;;;;;1.00;0.30;;;;;;;-128.00;-1.00;-1.00;100142;1299;1003658;-24
2022/05/30 10:30:35;;;;;;;0.70;0.40;;;;;;;-128.00;-1.00;-1.00;100196;1299;1003986;-29
2022/05/30 10:33:08;;;;;;;5.50;0.50;;;;;;;-128.00;-1.00;-1.00;100183;1299;1002905;-25
2022/05/30 10:35:45;;;;;;;1.10;0.40;;;;;;;-128.00;-1.00;-1.00;100108;1299;1003232;-24
2022/05/30 10:38:27;;;;;;;0.80;0.50;;;;;;;-128.00;-1.00;-1.00;100174;1299;1004499;-25
2022/05/30 10:41:02;;;;;;;4.40;0.80;;;;;;;-128.00;-1.00;-1.00;100173;1299;1003972;-28
2022/05/30 10:43:46;;;;;;;1.00;0.60;;;;;;;-128.00;-1.00;-1.00;100158;1299;1004043;-28
2022/05/30 10:46:17;;;;;;;;;;;;;;;-128.00;-1.00;-1.00;100124;1299;1003773;-27
2022/05/30 10:48:56;;;;;;;1.30;0.60;;;;;;;-128.00;-1.00;-1.00;100172;1299;1003950;-26
2022/05/30 10:51:28;;;;;;;2.50;0.70;;;;;;;-128.00;-1.00;-1.00;100172;1299;1004448;-24
2022/05/30 10:54:04;;;;;;;2.50;0.60;;;;;;;-128.00;-1.00;-1.00;100132;1299;1004092;-25
2022/05/30 10:56:35;;;;;;;1.60;0.90;;;;;;;-128.00;-1.00;-1.00;100196;1299;1003250;-28
2022/05/30 10:59:08;;;;;;;2.10;0.80;;;;;;;-128.00;-1.00;-1.00;100231;1299;1003670;-24
2022/05/30 11:01:43;;;;;;;4.00;0.80;;;;;;;-128.00;-1.00;-1.00;100156;1299;1004205;-28
2022/05/30 11:04:19;;;;;;;6.10;1.80;;;;;;;-128.00;-1.00;-1.00;100020;1300;1004173;-28
2022/05/30 11:06:49;;;;;;;5.20;4.70;;;;;;;-128.00;-1.00;-1.00;99984;1299;1004005;-28
2022/05/30 11:09:21;;;;;;;4.80;3.80;;;;;;;-128.00;-1.00;-1.00;100150;1299;1003966;-28
2022/05/30 11:11:58;;;;;;;10.30;5.70;;;;;;;-128.00;-1.00;-1.00;100199;1299;1003810;-28
2022/05/30 11:14:31;;;;;;;5.60;3.60;;;;;;;-128.00;-1.00;-1.00;100118;1299;1003902;-28
2022/05/30 11:17:07;;;;;;;3.50;3.20;;;;;;;-128.00;-1.00;-1.00;100184;1299;1003422;-23
2022/05/30 11:19:46;;;;;;;1.20;1.10;;;;;;;-128.00;-1.00;-1.00;100187;1299;1003872;-28
2022/05/30 11:22:17;;;;;;;2.20;1.00;;;;;;;-128.00;-1.00;-1.00;100113;1299;1002902;-24
2022/05/30 11:24:49;;;;;;;1.50;0.70;;;;;;;-128.00;-1.00;-1.00;100146;1299;1003804;-30
2022/05/30 11:27:22;;;;;;;2.00;1.40;;;;;;;-128.00;-1.00;-1.00;100190;1299;1003521;-30
2022/05/30 11:29:56;;;;;;;1.20;1.00;;;;;;;-128.00;-1.00;-1.00;100117;1299;1003848;-29
2022/05/30 11:32:29;;;;;;;2.30;2.00;;;;;;;-128.00;-1.00;-1.00;100265;1299;1003652;-25
2022/05/30 11:35:16;;;;;;;1.70;1.60;;;;;;;-128.00;-1.00;-1.00;100204;1299;1004553;-29
2022/05/30 11:37:59;;;;;;;2.40;1.00;;;;;;;-128.00;-1.00;-1.00;100189;1299;1004411;-28
2022/05/30 11:40:52;;;;;;;2.00;1.20;;;;;;;-128.00;-1.00;-1.00;100142;1299;1004395;-25
2022/05/30 11:43:33;;;;;;;3.00;1.40;;;;;;;-128.00;-1.00;-1.00;100173;1299;1003026;-29
2022/05/30 11:46:10;;;;;;;1.80;1.20;;;;;;;-128.00;-1.00;-1.00;100173;1299;1003821;-30
2022/05/30 11:48:46;;;;;;;2.60;1.10;;;;;;;-128.00;-1.00;-1.00;100187;1299;1003897;-26